createdAt,value
2018-07-13T00:01:57.348Z,5.4
2018-07-13T00:06:59.522Z,7.5
2018-07-13T00:12:01.836Z,6.9
2018-07-13T00:17:04.040Z,3.8
2018-07-13T00:22:06.380Z,3.5
2018-07-13T00:27:08.625Z,5.3
2018-07-13T00:32:11.083Z,5.8
2018-07-13T00:37:13.200Z,5.1
2018-07-13T00:42:15.551Z,6.3
2018-07-13T00:47:17.962Z,4.5
2018-07-13T00:52:20.154Z,5.6
2018-07-13T00:57:22.386Z,2.9
2018-07-13T01:02:24.687Z,2.9
2018-07-13T01:07:27.089Z,4.1
2018-07-13T01:12:29.327Z,5.5
2018-07-13T01:17:31.573Z,4
2018-07-13T01:22:33.840Z,3
2018-07-13T01:27:36.288Z,3.6
2018-07-13T01:32:38.572Z,3
2018-07-13T01:37:40.876Z,5
2018-07-13T01:42:43.031Z,4.5
2018-07-13T01:47:45.474Z,4.8
2018-07-13T01:52:47.620Z,4.4
2018-07-13T01:57:49.971Z,3.7
2018-07-13T02:02:52.418Z,3.6
2018-07-13T02:07:54.453Z,5.1
2018-07-13T02:12:56.898Z,4.5
2018-07-13T02:17:59.256Z,4.9
2018-07-13T02:23:01.446Z,2.6
2018-07-13T02:28:04.017Z,4.4
2018-07-13T02:33:06.018Z,2.7
2018-07-13T02:38:08.366Z,2.8
2018-07-13T02:43:10.638Z,3.6
2018-07-13T02:48:12.893Z,2.8
2018-07-13T02:53:15.389Z,3.1
2018-07-13T02:58:17.550Z,3.9
2018-07-13T03:03:19.767Z,4.1
2018-07-13T03:08:21.996Z,4.5
2018-07-13T03:13:24.425Z,4.1
2018-07-13T03:18:26.639Z,6.7
2018-07-13T03:23:28.928Z,3.8
2018-07-13T03:28:31.269Z,2.6
2018-07-13T03:33:33.690Z,7
2018-07-13T03:38:35.802Z,4.9
2018-07-13T03:43:38.145Z,4.1
2018-07-13T03:48:40.522Z,4.6
2018-07-13T03:53:42.679Z,5.3
2018-07-13T03:58:44.946Z,4.5
2018-07-13T04:03:47.584Z,2.8
2018-07-13T04:08:49.586Z,6.1
2018-07-13T04:13:51.864Z,4.9
2018-07-13T04:18:54.200Z,6.3
2018-07-13T04:23:56.641Z,4.1
2018-07-13T04:28:58.783Z,6.6
2018-07-13T04:34:01.078Z,6.4
2018-07-13T04:39:03.378Z,7.2
2018-07-13T04:44:05.694Z,2.2
2018-07-13T04:49:08.021Z,6.2
2018-07-13T04:54:10.269Z,10
2018-07-13T04:59:12.637Z,8.7
2018-07-13T05:04:14.892Z,8.6
2018-07-13T05:09:17.190Z,11.2
2018-07-13T05:14:19.424Z,10.8
2018-07-13T05:19:21.678Z,8.8
2018-07-13T05:24:24.095Z,7.9
2018-07-13T05:29:26.258Z,7.9
2018-07-13T05:34:28.738Z,7.7
2018-07-13T05:39:30.939Z,10.2
2018-07-13T05:44:33.258Z,7
2018-07-13T05:49:35.451Z,4.1
2018-07-13T05:54:37.870Z,5.4
2018-07-13T05:59:40.121Z,5.5
2018-07-13T06:04:42.276Z,7.8
2018-07-13T06:09:44.665Z,4.6
2018-07-13T06:14:46.920Z,4
2018-07-13T06:19:49.250Z,6.1
2018-07-13T06:24:51.482Z,4.2
2018-07-13T06:29:53.756Z,4.2
2018-07-13T06:34:56.234Z,4.8
2018-07-13T06:39:58.462Z,3.3
2018-07-13T06:45:00.750Z,3.4
2018-07-13T06:50:03.036Z,2.2
2018-07-13T06:55:05.435Z,2.7
2018-07-13T07:00:07.510Z,3.7
2018-07-13T07:05:09.940Z,4.8
2018-07-13T07:10:12.268Z,3.9
2018-07-13T07:15:14.629Z,2.8
2018-07-13T07:20:16.870Z,1.7
2018-07-13T07:25:19.055Z,4
2018-07-13T07:30:21.352Z,1.7
2018-07-13T07:35:23.563Z,3.3
2018-07-13T07:40:26.206Z,2.2
2018-07-13T07:45:28.449Z,4.1
2018-07-13T07:50:30.540Z,2.6
2018-07-13T07:55:32.922Z,1.3
2018-07-13T08:00:35.164Z,2.1
2018-07-13T08:05:37.506Z,3.3
2018-07-13T08:10:39.881Z,4.2
2018-07-13T08:15:42.086Z,2.7
2018-07-13T08:20:44.452Z,1.4
2018-07-13T08:25:46.762Z,3
2018-07-13T08:30:48.911Z,1.8
2018-07-13T08:35:51.396Z,2.4
2018-07-13T08:40:53.609Z,1.6
2018-07-13T08:45:55.881Z,2.6
2018-07-13T08:50:58.050Z,2.3
2018-07-13T08:56:00.407Z,1.1
2018-07-13T09:01:02.794Z,2
2018-07-13T09:06:05.038Z,3.3
2018-07-13T09:11:07.248Z,1.2
2018-07-13T09:16:09.553Z,1.6
2018-07-13T09:21:11.898Z,1.6
2018-07-13T09:26:14.073Z,1.5
2018-07-13T09:36:18.764Z,0.8
2018-07-13T09:41:21.118Z,0.9
2018-07-13T09:46:23.233Z,1.2
2018-07-13T09:51:25.634Z,0.8
2018-07-13T09:56:27.961Z,1.4
2018-07-13T10:01:30.220Z,0.8
2018-07-13T10:06:32.456Z,1.4
2018-07-13T10:11:34.857Z,0.9
2018-07-13T10:16:37.140Z,0.8
2018-07-13T10:21:39.328Z,0.7
2018-07-13T10:26:41.608Z,1.2
2018-07-13T10:31:43.993Z,1.5
2018-07-13T10:36:46.349Z,0.8
2018-07-13T10:41:48.552Z,1.1
2018-07-13T10:46:50.902Z,0.9
2018-07-13T10:51:53.242Z,2.4
2018-07-13T10:56:55.413Z,1.9
2018-07-13T11:01:57.619Z,1.3
2018-07-13T11:07:00.088Z,2.1
2018-07-13T11:12:02.472Z,0.9
2018-07-13T11:17:04.825Z,1.6
2018-07-13T11:22:06.936Z,2.5
2018-07-13T11:27:09.368Z,2.1
2018-07-13T11:32:11.527Z,1.1
2018-07-13T11:37:14.040Z,2.4
2018-07-13T11:42:16.094Z,1.7
2018-07-13T11:47:18.355Z,2.2
2018-07-13T11:52:20.737Z,3.6
2018-07-13T11:57:22.960Z,2.2
2018-07-13T12:02:25.228Z,1.4
2018-07-13T12:07:27.718Z,2.9
2018-07-13T12:12:29.864Z,3.8
2018-07-13T12:17:32.376Z,1.5
2018-07-13T12:22:34.448Z,3.6
2018-07-13T12:27:36.888Z,3.3
2018-07-13T12:32:38.999Z,2.7
2018-07-13T12:37:41.269Z,2
2018-07-13T12:42:43.529Z,1
2018-07-13T12:47:45.976Z,1.8
2018-07-13T12:52:48.207Z,2.2
2018-07-13T12:57:50.567Z,3.4
2018-07-13T13:02:52.907Z,2.7
2018-07-13T13:07:55.152Z,1.7
2018-07-13T13:12:57.399Z,1.7
2018-07-13T13:17:59.780Z,1.6
2018-07-13T13:23:02.083Z,2.3
2018-07-13T13:28:04.204Z,2.2
2018-07-13T13:33:06.632Z,1.1
2018-07-13T13:38:08.789Z,2
2018-07-13T13:43:11.224Z,2.2
2018-07-13T13:48:13.430Z,2.4
2018-07-13T13:53:15.704Z,2.3
2018-07-13T13:58:18.108Z,2
2018-07-13T14:03:20.306Z,1.4
2018-07-13T14:08:22.584Z,2.4
2018-07-13T14:13:24.943Z,2.5
2018-07-13T14:18:27.279Z,2.8
2018-07-13T14:23:29.556Z,3
2018-07-13T14:28:31.849Z,1.2
2018-07-13T14:33:34.125Z,1.6
2018-07-13T14:38:36.449Z,1.9
2018-07-13T14:43:38.677Z,2.5
2018-07-13T14:48:41.029Z,2.7
2018-07-13T14:53:43.342Z,5.1
2018-07-13T14:58:45.717Z,3.2
2018-07-13T15:03:47.890Z,2.4
2018-07-13T15:08:50.131Z,2.8
2018-07-13T15:13:52.517Z,3.6
2018-07-13T15:18:54.761Z,3.6
2018-07-13T15:23:57.060Z,1.6
2018-07-13T15:28:59.365Z,2.4
2018-07-13T15:34:01.642Z,1.5
2018-07-13T15:39:03.914Z,3.3
2018-07-13T15:44:06.211Z,3.1
2018-07-13T15:49:08.580Z,2.4
2018-07-13T15:54:10.921Z,2.7
2018-07-13T15:59:13.026Z,3.3
2018-07-13T16:04:15.356Z,2.1
2018-07-13T16:09:17.630Z,3.4
2018-07-13T16:14:20.025Z,2.2
2018-07-13T16:19:22.304Z,3.9
2018-07-13T16:24:24.550Z,4.1
2018-07-13T16:29:27.001Z,3
2018-07-13T16:34:29.089Z,2.8
2018-07-13T16:39:31.373Z,2.9
2018-07-13T16:44:33.843Z,2.8
2018-07-13T16:54:42.270Z,2.6
2018-07-13T16:59:44.709Z,4.9
2018-07-13T17:04:47.031Z,2.9
2018-07-13T17:14:51.472Z,2.2
2018-07-13T17:19:53.909Z,2.9
2018-07-13T17:24:56.181Z,2.9
2018-07-13T17:29:58.339Z,2.9
2018-07-13T17:35:00.817Z,2.9
2018-07-13T17:40:03.147Z,1.9
2018-07-13T17:45:05.278Z,1.9
2018-07-13T17:50:07.554Z,2
2018-07-13T17:55:09.942Z,2.1
2018-07-13T18:00:12.093Z,2
2018-07-13T18:05:14.403Z,1.8
2018-07-13T18:10:16.829Z,2.1
2018-07-13T18:15:19.141Z,2.2
2018-07-13T18:20:21.234Z,2.3
2018-07-13T18:25:23.734Z,1.5
2018-07-13T18:30:26.017Z,2.3
2018-07-13T18:35:28.301Z,2.1
2018-07-13T18:40:30.572Z,1.7
2018-07-13T18:45:32.930Z,2.1
2018-07-13T18:50:35.240Z,1.8
2018-07-13T18:55:37.342Z,1.7
2018-07-13T19:00:39.805Z,1.1
2018-07-13T19:05:42.046Z,2.5
2018-07-13T19:10:44.368Z,2
2018-07-13T19:20:49.013Z,3.9
2018-07-13T19:25:51.263Z,2.4
2018-07-13T19:30:53.573Z,2.3
2018-07-13T19:35:56.021Z,2.9
2018-07-13T19:40:58.143Z,1
2018-07-13T19:46:00.332Z,2
2018-07-13T19:51:02.590Z,2.6
2018-07-13T19:56:04.990Z,2.9
2018-07-13T20:01:07.336Z,2.3
2018-07-13T20:06:09.429Z,2.9
2018-07-13T20:11:11.777Z,1
2018-07-13T20:16:14.180Z,3
2018-07-13T20:21:16.429Z,3
2018-07-13T20:26:18.668Z,3.2
2018-07-13T20:31:20.884Z,2.4
2018-07-13T20:36:23.305Z,1.8
2018-07-13T20:41:25.536Z,2.4
2018-07-13T20:46:28.000Z,3.5
2018-07-13T20:51:30.069Z,2.7
2018-07-13T20:56:32.521Z,2.6
2018-07-13T21:01:34.691Z,2.9
2018-07-13T21:06:37.080Z,2.8
2018-07-13T21:11:39.385Z,4
2018-07-13T21:16:41.610Z,2.8
2018-07-13T21:21:44.046Z,2.9
2018-07-13T21:31:58.514Z,4.1
2018-07-13T21:37:00.777Z,2.7
2018-07-13T21:47:05.230Z,1.6
2018-07-13T21:52:07.631Z,3.3
2018-07-13T21:57:09.793Z,4.8
2018-07-13T22:02:12.149Z,2.7
2018-07-13T22:07:14.503Z,1.9
2018-07-13T22:12:16.749Z,2.1
2018-07-13T22:17:19.049Z,4.9
2018-07-13T22:22:21.402Z,3.1
2018-07-13T22:27:23.636Z,5.1
2018-07-13T22:32:25.946Z,2.2
2018-07-13T22:37:28.419Z,1.1
2018-07-13T22:42:30.708Z,3.8
2018-07-13T22:47:32.907Z,4.1
2018-07-13T22:52:35.121Z,2.5
2018-07-13T22:57:37.477Z,2.2
2018-07-13T23:02:39.836Z,2.3
2018-07-13T23:07:42.057Z,2
2018-07-13T23:12:44.318Z,1.8
2018-07-13T23:17:46.537Z,1.9
2018-07-13T23:22:48.977Z,3.2
2018-07-13T23:27:51.217Z,4.2
2018-07-13T23:32:53.461Z,4
2018-07-13T23:37:55.750Z,4.6
2018-07-13T23:42:58.232Z,3.2
2018-07-13T23:48:00.332Z,2.2
2018-07-13T23:53:02.660Z,3.9
2018-07-13T23:58:04.883Z,1.8
